createdAt,value
2023-05-18T00:02:26.744Z,52006.25
2023-05-18T00:05:02.387Z,51997.00
2023-05-18T00:07:34.392Z,51990.57
2023-05-18T00:10:06.458Z,51998.21
2023-05-18T00:12:37.875Z,52001.02
2023-05-18T00:15:11.584Z,52000.62
2023-05-18T00:17:42.986Z,51997.00
2023-05-18T00:20:15.527Z,51992.59
2023-05-18T00:22:48.484Z,51986.96
2023-05-18T00:25:20.129Z,51985.35
2023-05-18T00:27:52.240Z,51997.80
2023-05-18T00:30:26.145Z,51998.61
2023-05-18T00:32:57.517Z,51998.21
2023-05-18T00:35:30.112Z,52001.82
2023-05-18T00:38:01.714Z,51995.80
2023-05-18T00:40:33.026Z,52005.04
2023-05-18T00:43:04.506Z,52005.84
2023-05-18T00:45:36.002Z,51994.99
2023-05-18T00:48:08.139Z,52000.22
2023-05-18T00:50:39.741Z,52007.05
2023-05-18T00:53:12.075Z,51993.79
2023-05-18T00:55:43.485Z,51995.80
2023-05-18T00:58:14.899Z,52007.45
2023-05-18T01:00:46.357Z,51987.36
2023-05-18T01:03:20.397Z,52011.47
2023-05-18T01:05:56.010Z,52009.46
2023-05-18T01:08:27.495Z,52005.84
2023-05-18T01:11:04.821Z,52028.75
2023-05-18T01:13:43.364Z,51995.40
2023-05-18T01:16:17.621Z,51999.01
2023-05-18T01:18:55.364Z,52006.24
2023-05-18T01:21:46.584Z,52015.09
2023-05-18T01:24:26.810Z,52031.16
2023-05-18T01:27:01.422Z,52001.42
2023-05-18T01:29:32.802Z,52008.25
2023-05-18T01:32:05.876Z,52005.45
2023-05-18T01:34:37.219Z,52007.05
2023-05-18T01:37:08.877Z,52007.05
2023-05-18T01:39:40.238Z,52009.06
2023-05-18T01:42:14.691Z,52022.32
2023-05-18T01:44:47.190Z,52017.09
2023-05-18T01:47:18.946Z,52033.57
2023-05-18T01:49:53.019Z,52026.34
2023-05-18T01:52:26.576Z,52021.92
2023-05-18T01:54:59.654Z,51999.01
2023-05-18T01:57:31.393Z,52003.03
2023-05-18T02:00:01.326Z,52014.68
2023-05-18T02:02:32.975Z,52023.12
2023-05-18T02:05:02.834Z,52031.56
2023-05-18T02:07:34.455Z,52019.51
2023-05-18T02:10:06.537Z,52029.96
2023-05-18T02:12:37.979Z,52032.77
2023-05-18T02:15:11.364Z,52033.17
2023-05-18T02:17:42.834Z,52033.57
2023-05-18T02:20:18.593Z,52035.18
2023-05-18T02:22:50.035Z,52030.35
2023-05-18T02:25:21.629Z,52033.57
2023-05-18T02:27:53.272Z,52042.81
2023-05-18T02:30:25.046Z,52035.18
2023-05-18T02:32:55.446Z,52037.59
2023-05-18T02:35:27.217Z,52041.60
2023-05-18T02:37:58.916Z,52036.38
2023-05-18T02:40:30.667Z,52031.56
2023-05-18T02:43:02.013Z,52030.36
2023-05-18T02:45:32.274Z,52033.57
2023-05-18T02:48:04.318Z,52041.20
2023-05-18T02:50:35.917Z,52025.93
2023-05-18T02:53:07.235Z,52025.13
2023-05-18T02:55:39.170Z,52029.15
2023-05-18T02:58:16.347Z,52027.14
2023-05-18T03:01:14.245Z,52036.79
2023-05-18T03:03:51.745Z,52024.73
2023-05-18T03:06:27.097Z,52026.34
2023-05-18T03:09:00.161Z,52017.09
2023-05-18T03:11:37.337Z,52029.95
2023-05-18T03:14:09.221Z,52020.71
2023-05-18T03:16:41.325Z,52021.91
2023-05-18T03:19:16.517Z,52019.91
2023-05-18T03:21:46.314Z,52018.70
2023-05-18T03:24:17.818Z,52014.28
2023-05-18T03:26:54.743Z,52017.10
2023-05-18T03:29:26.529Z,52020.31
2023-05-18T03:31:58.497Z,52017.90
2023-05-18T03:34:29.929Z,52018.70
2023-05-18T03:37:02.166Z,52005.04
2023-05-18T03:39:34.040Z,52014.68
2023-05-18T03:42:05.705Z,52020.31
2023-05-18T03:44:37.424Z,52014.28
2023-05-18T03:47:08.116Z,52007.05
2023-05-18T03:49:39.737Z,52012.27
2023-05-18T03:52:11.800Z,52010.27
2023-05-18T03:54:44.481Z,52007.05
2023-05-18T03:57:16.104Z,52010.66
2023-05-18T03:59:47.993Z,51999.01
2023-05-18T04:02:19.740Z,51995.80
2023-05-18T04:04:54.239Z,52007.85
2023-05-18T04:07:25.592Z,52000.62
2023-05-18T04:09:58.207Z,52000.22
2023-05-18T04:12:29.844Z,51992.58
2023-05-18T04:15:01.313Z,51999.02
2023-05-18T04:17:33.858Z,51989.37
2023-05-18T04:20:14.327Z,51988.97
2023-05-18T04:22:48.624Z,51999.42
2023-05-18T04:25:21.642Z,51990.57
2023-05-18T04:27:51.854Z,51976.51
2023-05-18T04:30:24.972Z,52003.03
2023-05-18T04:32:59.571Z,51999.82
2023-05-18T04:35:33.133Z,51977.31
2023-05-18T04:38:05.533Z,51980.53
2023-05-18T04:40:38.709Z,51977.71
2023-05-18T04:43:11.705Z,51974.90
2023-05-18T04:45:46.841Z,51976.91
2023-05-18T04:48:19.403Z,51974.10
2023-05-18T04:50:54.503Z,51961.24
2023-05-18T04:53:27.660Z,51969.27
2023-05-18T04:56:01.113Z,51965.66
2023-05-18T04:58:34.305Z,51960.43
2023-05-18T05:01:07.153Z,51956.82
2023-05-18T05:03:38.941Z,51965.26
2023-05-18T05:06:09.189Z,51952.80
2023-05-18T05:08:41.057Z,51940.35
2023-05-18T05:11:10.973Z,51941.15
2023-05-18T05:13:42.449Z,51944.36
2023-05-18T05:16:14.855Z,51940.75
2023-05-18T05:18:47.446Z,51944.36
2023-05-18T05:21:19.911Z,51934.72
2023-05-18T05:23:49.860Z,51927.08
2023-05-18T05:26:21.746Z,51936.32
2023-05-18T05:28:53.295Z,51927.89
2023-05-18T05:31:24.810Z,51922.26
2023-05-18T05:33:56.523Z,51923.07
2023-05-18T05:36:27.992Z,51910.61
2023-05-18T05:38:59.653Z,51915.03
2023-05-18T05:41:31.081Z,51902.17
2023-05-18T05:44:04.056Z,51892.93
2023-05-18T05:46:35.724Z,51911.01
2023-05-18T05:49:08.207Z,51901.37
2023-05-18T05:51:39.792Z,51894.13
2023-05-18T05:54:12.059Z,51892.93
2023-05-18T05:56:43.880Z,51891.32
2023-05-18T05:59:16.414Z,51877.66
2023-05-18T06:01:48.591Z,51888.91
2023-05-18T06:04:20.899Z,51871.23
2023-05-18T06:06:53.946Z,51879.27
2023-05-18T06:09:32.395Z,51869.23
2023-05-18T06:12:05.348Z,51856.36
2023-05-18T06:14:38.655Z,51872.84
2023-05-18T06:17:11.052Z,51866.81
2023-05-18T06:19:43.333Z,51876.05
2023-05-18T06:22:15.515Z,51853.15
2023-05-18T06:24:59.160Z,51853.15
2023-05-18T06:27:44.842Z,51841.49
2023-05-18T06:30:42.015Z,51848.73
2023-05-18T06:33:26.302Z,51825.02
2023-05-18T06:35:58.669Z,51834.66
2023-05-18T06:38:30.745Z,51808.54
2023-05-18T06:41:02.988Z,51817.79
2023-05-18T06:43:40.546Z,51816.18
2023-05-18T06:46:26.813Z,51807.34
2023-05-18T06:49:22.441Z,51812.56
2023-05-18T06:52:06.241Z,51789.26
2023-05-18T06:54:43.914Z,51792.88
2023-05-18T06:57:17.071Z,51792.07
2023-05-18T06:59:54.354Z,51781.63
2023-05-18T07:02:29.146Z,51784.44
2023-05-18T07:05:01.917Z,51773.99
2023-05-18T07:07:33.983Z,51777.21
2023-05-18T07:10:08.279Z,51766.76
2023-05-18T07:12:41.140Z,51785.24
2023-05-18T07:15:15.093Z,51762.34
2023-05-18T07:17:47.466Z,51765.55
2023-05-18T07:20:20.572Z,51748.68
2023-05-18T07:22:55.552Z,51741.45
2023-05-18T07:25:28.369Z,51749.08
2023-05-18T07:28:03.694Z,51749.48
2023-05-18T07:30:35.610Z,51739.84
2023-05-18T07:33:07.301Z,51730.59
2023-05-18T07:35:39.319Z,51738.63
2023-05-18T07:38:11.238Z,51726.98
2023-05-18T07:40:42.734Z,51731.00
2023-05-18T07:43:14.387Z,51736.22
2023-05-18T07:45:45.777Z,51707.69
2023-05-18T07:48:17.279Z,51708.89
2023-05-18T07:50:49.024Z,51716.53
2023-05-18T07:53:18.899Z,51704.07
2023-05-18T07:55:50.480Z,51712.11
2023-05-18T07:58:20.248Z,51713.72
2023-05-18T08:00:52.140Z,51707.29
2023-05-18T08:03:23.857Z,51693.63
2023-05-18T08:05:56.001Z,51696.44
2023-05-18T08:08:27.592Z,51698.45
2023-05-18T08:11:00.752Z,51689.61
2023-05-18T08:13:33.849Z,51694.03
2023-05-18T08:16:11.905Z,51700.86
2023-05-18T08:18:44.024Z,51697.25
2023-05-18T08:21:15.824Z,51692.82
2023-05-18T08:23:45.701Z,51683.98
2023-05-18T08:26:17.611Z,51685.19
2023-05-18T08:28:50.192Z,51677.15
2023-05-18T08:31:21.816Z,51685.99
2023-05-18T08:33:54.136Z,51662.29
2023-05-18T08:36:25.520Z,51688.00
2023-05-18T08:38:57.421Z,51671.93
2023-05-18T08:41:32.615Z,51652.64
2023-05-18T08:44:05.497Z,51652.24
2023-05-18T08:46:38.147Z,51670.72
2023-05-18T08:49:10.828Z,51645.81
2023-05-18T08:51:42.963Z,51648.62
2023-05-18T08:54:15.505Z,51649.84
2023-05-18T08:56:47.360Z,51640.99
2023-05-18T08:59:20.629Z,51641.39
2023-05-18T09:01:52.542Z,51626.52
2023-05-18T09:04:24.643Z,51620.90
2023-05-18T09:07:00.585Z,51615.68
2023-05-18T09:09:32.284Z,51618.89
2023-05-18T09:12:02.208Z,51588.35
2023-05-18T09:14:33.868Z,51604.43
2023-05-18T09:17:05.648Z,51598.80
2023-05-18T09:19:37.785Z,51618.09
2023-05-18T09:22:09.808Z,51638.18
2023-05-18T09:24:41.420Z,51653.85
2023-05-18T09:27:13.252Z,51670.73
2023-05-18T09:29:54.831Z,51637.78
2023-05-18T09:32:26.280Z,51628.94
2023-05-18T09:34:57.792Z,51655.86
2023-05-18T09:37:27.666Z,51653.85
2023-05-18T09:40:05.252Z,51675.95
2023-05-18T09:42:39.730Z,51657.06
2023-05-18T09:45:19.531Z,51657.07
2023-05-18T09:47:51.259Z,51634.16
2023-05-18T09:50:23.836Z,51624.12
2023-05-18T09:52:57.808Z,51612.06
2023-05-18T09:55:29.360Z,51595.59
2023-05-18T09:58:03.648Z,51581.93
2023-05-18T10:00:36.701Z,51566.66
2023-05-18T10:03:08.632Z,51563.04
2023-05-18T10:05:40.332Z,51566.66
2023-05-18T10:08:11.722Z,51541.75
2023-05-18T10:10:43.846Z,51537.33
2023-05-18T10:13:19.140Z,51527.28
2023-05-18T10:15:52.659Z,51542.15
2023-05-18T10:18:25.393Z,51521.66
2023-05-18T10:20:59.859Z,51504.38
2023-05-18T10:23:34.571Z,51506.79
2023-05-18T10:26:07.867Z,51504.78
2023-05-18T10:28:43.075Z,51515.63
2023-05-18T10:31:14.617Z,51514.02
2023-05-18T10:33:46.403Z,51504.38
2023-05-18T10:36:17.943Z,51502.38
2023-05-18T10:38:49.427Z,51514.43
2023-05-18T10:41:19.337Z,51542.95
2023-05-18T10:43:51.056Z,51534.52
2023-05-18T10:46:26.971Z,51550.18
2023-05-18T10:48:58.778Z,51561.03
2023-05-18T10:51:31.895Z,51567.86
2023-05-18T10:54:15.137Z,51555.41
2023-05-18T10:56:50.613Z,51548.98
2023-05-18T10:59:23.465Z,51541.75
2023-05-18T11:01:55.602Z,51562.24
2023-05-18T11:04:30.432Z,51535.32
2023-05-18T11:07:02.607Z,51547.77
2023-05-18T11:09:34.066Z,51519.65
2023-05-18T11:12:05.733Z,51502.77
2023-05-18T11:14:37.324Z,51513.62
2023-05-18T11:17:25.677Z,51518.45
2023-05-18T11:20:19.776Z,51530.90
2023-05-18T11:22:52.784Z,51510.41
2023-05-18T11:25:42.103Z,51518.85
2023-05-18T11:28:14.338Z,51507.20
2023-05-18T11:30:52.811Z,51531.30
2023-05-18T11:33:30.108Z,51514.43
2023-05-18T11:36:11.783Z,51510.01
2023-05-18T11:38:51.981Z,51495.14
2023-05-18T11:41:36.514Z,51478.67
2023-05-18T11:44:16.371Z,51486.70
2023-05-18T11:47:02.416Z,51490.32
2023-05-18T11:49:38.056Z,51509.20
2023-05-18T11:52:17.601Z,51520.85
2023-05-18T11:54:52.484Z,51520.05
2023-05-18T11:57:31.428Z,51540.14
2023-05-18T12:00:06.861Z,51558.62
2023-05-18T12:02:46.541Z,51586.35
2023-05-18T12:05:18.288Z,51575.90
2023-05-18T12:07:48.146Z,51593.98
2023-05-18T12:10:19.714Z,51598.00
2023-05-18T12:12:52.229Z,51612.46
2023-05-18T12:15:25.935Z,51577.51
2023-05-18T12:17:59.823Z,51571.08
2023-05-18T12:20:31.626Z,51554.61
2023-05-18T12:23:03.667Z,51530.90
2023-05-18T12:25:35.034Z,51518.85
2023-05-18T12:28:05.141Z,51532.51
2023-05-18T12:30:37.268Z,51509.20
2023-05-18T12:33:09.197Z,51485.90
2023-05-18T12:35:40.725Z,51481.07
2023-05-18T12:38:12.316Z,51473.45
2023-05-18T12:40:49.617Z,51450.54
2023-05-18T12:43:21.169Z,51446.12
2023-05-18T12:45:52.763Z,51491.93
2023-05-18T12:48:26.842Z,51511.21
2023-05-18T12:50:58.395Z,51518.85
2023-05-18T12:53:34.234Z,51551.79
2023-05-18T12:56:09.963Z,51571.08
2023-05-18T12:58:44.803Z,51565.05
2023-05-18T13:01:16.514Z,51551.39
2023-05-18T13:03:48.717Z,51547.77
2023-05-18T13:06:20.288Z,51534.51
2023-05-18T13:08:54.440Z,51522.86
2023-05-18T13:11:30.184Z,51532.11
2023-05-18T13:14:05.535Z,51518.04
2023-05-18T13:16:38.987Z,51506.39
2023-05-18T13:19:11.701Z,51531.70
2023-05-18T13:21:43.438Z,51543.36
2023-05-18T13:24:15.244Z,51557.01
2023-05-18T13:26:46.692Z,51534.91
2023-05-18T13:29:16.486Z,51534.92
2023-05-18T13:31:47.972Z,51563.84
2023-05-18T13:34:19.437Z,51553.80
2023-05-18T13:36:51.230Z,51564.65
2023-05-18T13:39:23.221Z,51585.95
2023-05-18T13:41:54.874Z,51592.77
2023-05-18T13:44:26.264Z,51577.11
2023-05-18T13:46:56.311Z,51561.03
2023-05-18T13:49:27.945Z,51563.84
2023-05-18T13:52:00.538Z,51534.11
2023-05-18T13:54:32.225Z,51539.34
2023-05-18T13:57:04.096Z,51514.83
2023-05-18T13:59:35.893Z,51540.95
2023-05-18T14:02:08.141Z,51555.41
2023-05-18T14:04:39.642Z,51524.47
2023-05-18T14:07:11.267Z,51518.85
2023-05-18T14:09:41.043Z,51521.66
2023-05-18T14:12:13.228Z,51529.70
2023-05-18T14:14:44.811Z,51526.88
2023-05-18T14:17:16.343Z,51501.16
2023-05-18T14:19:47.922Z,51530.90
2023-05-18T14:22:19.485Z,51517.64
2023-05-18T14:24:51.276Z,51505.99
2023-05-18T14:27:22.825Z,51499.96
2023-05-18T14:29:54.712Z,51496.74
2023-05-18T14:32:26.457Z,51497.15
2023-05-18T14:34:58.838Z,51495.14
2023-05-18T14:37:30.294Z,51495.54
2023-05-18T14:40:01.768Z,51499.16
2023-05-18T14:42:33.376Z,51494.74
2023-05-18T14:45:05.171Z,51495.14
2023-05-18T14:47:36.847Z,51481.08
2023-05-18T14:50:09.824Z,51503.98
2023-05-18T14:52:41.627Z,51504.79
2023-05-18T14:55:13.638Z,51505.18
2023-05-18T14:57:45.257Z,51493.53
2023-05-18T15:00:18.299Z,51489.11
2023-05-18T15:02:50.249Z,51496.35
2023-05-18T15:05:21.848Z,51489.11
2023-05-18T15:07:53.414Z,51496.35
2023-05-18T15:10:25.201Z,51484.29
2023-05-18T15:12:56.955Z,51465.41
2023-05-18T15:15:28.381Z,51451.75
2023-05-18T15:17:59.955Z,51469.02
2023-05-18T15:20:32.880Z,51455.36
2023-05-18T15:23:04.744Z,51453.36
2023-05-18T15:25:36.182Z,51452.55
2023-05-18T15:28:07.826Z,51452.55
2023-05-18T15:30:39.989Z,51443.71
2023-05-18T15:33:11.578Z,51446.93
2023-05-18T15:35:43.198Z,51427.64
2023-05-18T15:38:14.561Z,51445.72
2023-05-18T15:40:48.432Z,51444.92
2023-05-18T15:43:20.588Z,51446.93
2023-05-18T15:45:52.126Z,51463.80
2023-05-18T15:48:23.740Z,51444.92
2023-05-18T15:50:55.300Z,51452.95
2023-05-18T15:53:27.057Z,51451.75
2023-05-18T15:55:59.591Z,51454.56
2023-05-18T15:58:31.801Z,51461.39
2023-05-18T16:01:03.295Z,51453.35
2023-05-18T16:03:34.836Z,51468.23
2023-05-18T16:06:06.810Z,51483.89
2023-05-18T16:08:38.256Z,51465.41
2023-05-18T16:11:09.804Z,51454.96
2023-05-18T16:13:41.509Z,51470.23
2023-05-18T16:16:14.370Z,51483.09
2023-05-18T16:18:46.094Z,51501.17
2023-05-18T16:21:17.805Z,51504.79
2023-05-18T16:23:49.573Z,51518.84
2023-05-18T16:26:22.351Z,51512.82
2023-05-18T16:28:54.247Z,51544.16
2023-05-18T16:31:26.054Z,51546.16
2023-05-18T16:33:57.677Z,51565.46
2023-05-18T16:36:29.466Z,51571.88
2023-05-18T16:39:03.079Z,51581.93
2023-05-18T16:41:34.856Z,51585.95
2023-05-18T16:44:06.645Z,51605.63
2023-05-18T16:46:38.262Z,51602.42
2023-05-18T16:49:09.675Z,51619.29
2023-05-18T16:51:40.294Z,51622.11
2023-05-18T16:54:11.832Z,51626.52
2023-05-18T16:56:43.337Z,51629.34
2023-05-18T16:59:13.384Z,51645.41
2023-05-18T17:01:45.288Z,51640.59
2023-05-18T17:04:16.849Z,51645.81
2023-05-18T17:06:48.626Z,51666.30
2023-05-18T17:09:21.334Z,51672.34
2023-05-18T17:11:53.024Z,51660.28
2023-05-18T17:14:25.217Z,51680.77
2023-05-18T17:16:56.693Z,51686.80
2023-05-18T17:19:26.710Z,51690.01
2023-05-18T17:21:58.360Z,51693.23
2023-05-18T17:24:28.581Z,51692.82
2023-05-18T17:27:00.213Z,51693.23
2023-05-18T17:29:29.997Z,51702.07
2023-05-18T17:32:01.688Z,51716.53
2023-05-18T17:34:33.407Z,51704.48
2023-05-18T17:37:03.645Z,51712.51
2023-05-18T17:39:35.166Z,51717.34
2023-05-18T17:42:07.545Z,51728.58
2023-05-18T17:44:39.062Z,51726.18
2023-05-18T17:47:10.798Z,51721.76
2023-05-18T17:49:42.473Z,51735.82
2023-05-18T17:52:14.327Z,51730.59
2023-05-18T17:54:45.973Z,51732.60
2023-05-18T17:57:15.921Z,51728.99
2023-05-18T17:59:47.437Z,51745.86
2023-05-18T18:02:18.805Z,51728.18
2023-05-18T18:04:51.301Z,51743.45
2023-05-18T18:07:23.277Z,51744.66
2023-05-18T18:09:55.089Z,51741.84
2023-05-18T18:12:26.599Z,51740.24
2023-05-18T18:14:58.025Z,51737.02
2023-05-18T18:17:29.681Z,51736.63
2023-05-18T18:20:00.024Z,51752.29
2023-05-18T18:22:33.648Z,51741.84
2023-05-18T18:25:07.058Z,51742.25
2023-05-18T18:27:38.511Z,51759.12
2023-05-18T18:30:11.893Z,51761.93
2023-05-18T18:32:43.662Z,51754.30
2023-05-18T18:35:15.403Z,51757.92
2023-05-18T18:37:47.613Z,51748.68
2023-05-18T18:40:19.505Z,51744.66
2023-05-18T18:42:51.640Z,51752.29
2023-05-18T18:45:23.412Z,51765.55
2023-05-18T18:47:53.182Z,51782.83
2023-05-18T18:50:25.028Z,51757.92
2023-05-18T18:52:56.479Z,51774.39
2023-05-18T18:55:27.928Z,51760.33
2023-05-18T18:58:01.360Z,51761.54
2023-05-18T19:00:33.071Z,51772.38
2023-05-18T19:03:04.786Z,51776.80
2023-05-18T19:05:34.670Z,51781.23
2023-05-18T19:08:07.028Z,51780.82
2023-05-18T19:10:38.868Z,51777.61
2023-05-18T19:13:10.353Z,51775.20
2023-05-18T19:15:41.991Z,51778.81
2023-05-18T19:18:13.414Z,51776.40
2023-05-18T19:20:44.987Z,51780.02
2023-05-18T19:23:14.870Z,51787.65
2023-05-18T19:25:46.365Z,51781.22
2023-05-18T19:28:18.012Z,51784.04
2023-05-18T19:30:49.627Z,51791.67
2023-05-18T19:33:21.543Z,51798.09
2023-05-18T19:35:54.574Z,51788.86
2023-05-18T19:38:26.604Z,51791.67
2023-05-18T19:40:58.211Z,51803.32
2023-05-18T19:43:30.918Z,51800.91
2023-05-18T19:46:02.538Z,51784.44
2023-05-18T19:48:34.162Z,51805.33
2023-05-18T19:51:06.573Z,51800.11
2023-05-18T19:53:38.321Z,51812.96
2023-05-18T19:56:09.905Z,51799.30
2023-05-18T19:58:41.421Z,51793.68
2023-05-18T20:01:12.948Z,51812.96
2023-05-18T20:03:44.437Z,51802.92
2023-05-18T20:06:15.921Z,51803.32
2023-05-18T20:08:48.140Z,51826.23
2023-05-18T20:11:19.972Z,51814.98
2023-05-18T20:13:51.386Z,51815.38
2023-05-18T20:16:22.893Z,51825.02
2023-05-18T20:18:54.329Z,51821.00
2023-05-18T20:21:25.790Z,51823.01
2023-05-18T20:23:57.656Z,51823.01
2023-05-18T20:26:31.338Z,51815.38
2023-05-18T20:29:03.877Z,51846.32
2023-05-18T20:31:33.691Z,51833.05
2023-05-18T20:34:07.146Z,51820.20
2023-05-18T20:36:38.563Z,51834.26
2023-05-18T20:39:10.662Z,51836.68
2023-05-18T20:41:41.939Z,51836.27
2023-05-18T20:44:14.413Z,51823.01
2023-05-18T20:46:45.898Z,51833.05
2023-05-18T20:49:17.512Z,51825.43
2023-05-18T20:51:49.660Z,51827.84
2023-05-18T20:54:21.696Z,51841.09
2023-05-18T20:56:53.343Z,51837.07
2023-05-18T20:59:23.159Z,51837.88
2023-05-18T21:01:54.918Z,51836.27
2023-05-18T21:04:26.363Z,51844.31
2023-05-18T21:06:57.771Z,51847.93
2023-05-18T21:09:31.459Z,51853.15
2023-05-18T21:12:02.897Z,51837.48
2023-05-18T21:14:34.431Z,51860.38
2023-05-18T21:17:04.208Z,51855.96
2023-05-18T21:19:35.621Z,51863.99
2023-05-18T21:22:07.211Z,51863.60
2023-05-18T21:24:37.040Z,51839.09
2023-05-18T21:27:08.649Z,51864.40
2023-05-18T21:29:40.111Z,51866.41
2023-05-18T21:32:12.131Z,51861.18
2023-05-18T21:34:43.902Z,51849.54
2023-05-18T21:37:15.437Z,51862.39
2023-05-18T21:39:47.154Z,51868.82
2023-05-18T21:42:18.579Z,51866.41
2023-05-18T21:44:48.500Z,51869.62
2023-05-18T21:47:19.906Z,51880.88
2023-05-18T21:49:52.281Z,51863.99
2023-05-18T21:52:23.712Z,51866.01
2023-05-18T21:54:55.215Z,51869.22
2023-05-18T21:57:26.718Z,51877.26
2023-05-18T21:59:56.534Z,51861.99
2023-05-18T22:02:28.034Z,51872.84
2023-05-18T22:04:59.443Z,51875.65
2023-05-18T22:07:31.269Z,51878.06
2023-05-18T22:10:02.729Z,51886.10
2023-05-18T22:12:34.690Z,51884.09
2023-05-18T22:15:07.704Z,51870.43
2023-05-18T22:17:39.304Z,51883.29
2023-05-18T22:20:11.723Z,51869.22
2023-05-18T22:22:44.651Z,51887.71
2023-05-18T22:25:18.338Z,51885.29
2023-05-18T22:27:49.779Z,51874.04
2023-05-18T22:30:24.059Z,51867.21
2023-05-18T22:32:55.627Z,51884.49
2023-05-18T22:35:25.480Z,51897.75
2023-05-18T22:37:57.613Z,51884.89
2023-05-18T22:40:28.991Z,51875.25
2023-05-18T22:43:00.405Z,51889.71
2023-05-18T22:45:31.878Z,51878.06
2023-05-18T22:48:03.690Z,51880.07
2023-05-18T22:50:35.514Z,51882.88
2023-05-18T22:53:10.381Z,51880.88
2023-05-18T22:55:41.841Z,51882.08
2023-05-18T22:58:13.236Z,51885.70
2023-05-18T23:00:44.688Z,51893.33
2023-05-18T23:03:17.711Z,51894.14
2023-05-18T23:05:49.663Z,51880.47
2023-05-18T23:08:21.717Z,51903.38
2023-05-18T23:10:53.071Z,51885.70
2023-05-18T23:13:24.489Z,51893.33
2023-05-18T23:15:57.030Z,51895.34
2023-05-18T23:18:28.519Z,51884.09
2023-05-18T23:20:59.995Z,51883.69
2023-05-18T23:23:31.427Z,51902.98
2023-05-18T23:26:02.999Z,51877.26
2023-05-18T23:28:34.477Z,51884.49
2023-05-18T23:31:05.925Z,51879.27
2023-05-18T23:33:38.256Z,51886.90
2023-05-18T23:36:10.872Z,51894.54
2023-05-18T23:38:42.272Z,51886.50
2023-05-18T23:41:13.729Z,51894.14
2023-05-18T23:43:46.095Z,51902.98
2023-05-18T23:46:18.891Z,51892.13
2023-05-18T23:48:52.629Z,51905.39
2023-05-18T23:51:24.368Z,51896.95
2023-05-18T23:53:54.329Z,51899.76
2023-05-18T23:56:26.651Z,51892.93
2023-05-18T23:58:59.144Z,51906.59
